Terminal Aerodrome Forecast
Issued by NWS Green Bay, WI

Home | Current Version | Previous Version | Graphics & Text | Print | Product List | Glossary On
Versions: 1 2 3 4 5 6 7 8 9 10 11 12 13 14 15 16 17 18 19 20 21 22 23 24 25 26 27 28 29 30 31 32 33 34 35 36 37 38
000
FTUS43 KGRB 140200 AAC
TAFGRB
TAF AMD
KGRB 140241Z 1403/1424 03022G36KT 3SM RA BR BKN006
     FM140600 36018G28KT 2SM -RASN OVC005
     FM140900 35018G28KT 1 1/2SM -SN OVC007
     FM141400 34020G30KT 4SM -SN BKN018
     FM141800 33017G27KT P6SM BKN035=

USA.gov is the U.S. government's official web portal to all federal, state and local government web resources and services.